createdAt,value
2023-05-12T00:03:04.035Z,100571.88
2023-05-12T00:06:08.191Z,100576.97
2023-05-12T00:09:11.379Z,100565.38
2023-05-12T00:12:14.696Z,100572.31
2023-05-12T00:15:20.028Z,100566.31
2023-05-12T00:18:23.402Z,100572.72
2023-05-12T00:21:27.207Z,100565.38
2023-05-12T00:24:30.729Z,100577.09
2023-05-12T00:27:33.726Z,100569.44
2023-05-12T00:30:37.081Z,100573.53
2023-05-12T00:33:40.597Z,100565.78
2023-05-12T00:36:44.031Z,100561.72
2023-05-12T00:39:47.219Z,100569.88
2023-05-12T00:42:50.481Z,100571.41
2023-05-12T00:45:53.829Z,100567.22
2023-05-12T00:48:57.857Z,100569.37
2023-05-12T00:52:03.356Z,100574.97
2023-05-12T00:55:07.087Z,100569.97
2023-05-12T00:58:10.142Z,100559.81
2023-05-12T01:01:14.273Z,100564.44
2023-05-12T01:04:18.963Z,100560.94
2023-05-12T01:07:23.245Z,100561.34
2023-05-12T01:10:26.355Z,100551.75
2023-05-12T01:13:29.620Z,100560.84
2023-05-12T01:16:38.894Z,100560.19
2023-05-12T01:19:50.588Z,100559.37
2023-05-12T01:22:55.455Z,100566.44
2023-05-12T01:26:10.313Z,100559.28
2023-05-12T01:29:13.765Z,100561.12
2023-05-12T01:32:18.522Z,100558.22
2023-05-12T01:35:21.627Z,100559.88
2023-05-12T01:38:25.378Z,100556.09
2023-05-12T01:41:28.921Z,100564.62
2023-05-12T01:44:32.626Z,100559.31
2023-05-12T01:47:36.157Z,100560.75
2023-05-12T01:50:39.766Z,100562.69
2023-05-12T01:53:43.318Z,100566.44
2023-05-12T01:56:47.554Z,100566.91
2023-05-12T01:59:51.222Z,100558.22
2023-05-12T02:02:54.741Z,100567.38
2023-05-12T02:05:58.771Z,100563.03
2023-05-12T02:09:02.116Z,100564.69
2023-05-12T02:12:05.847Z,100571.63
2023-05-12T02:15:09.419Z,100565.44
2023-05-12T02:18:13.454Z,100568.25
2023-05-12T02:21:16.669Z,100571.91
2023-05-12T02:24:21.432Z,100580.81
2023-05-12T02:27:24.929Z,100575.31
2023-05-12T02:30:28.396Z,100573.84
2023-05-12T02:33:31.869Z,100579.44
2023-05-12T02:36:36.898Z,100582.13
2023-05-12T02:39:42.492Z,100583.94
2023-05-12T02:42:46.026Z,100581.34
2023-05-12T02:45:50.090Z,100579.44
2023-05-12T02:48:53.404Z,100585.78
2023-05-12T02:51:56.478Z,100588.34
2023-05-12T02:55:00.021Z,100581.06
2023-05-12T02:58:03.767Z,100582.91
2023-05-12T03:01:11.155Z,100580.44
2023-05-12T03:04:15.055Z,100582.41
2023-05-12T03:07:18.451Z,100584.31
2023-05-12T03:10:22.551Z,100576.28
2023-05-12T03:13:26.189Z,100568.44
2023-05-12T03:16:29.295Z,100585.97
2023-05-12T03:19:33.038Z,100599.31
2023-05-12T03:22:36.460Z,100594.09
2023-05-12T03:25:39.822Z,100589.63
2023-05-12T03:28:43.501Z,100604.56
2023-05-12T03:31:47.937Z,100599.75
2023-05-12T03:34:51.048Z,100597.03
2023-05-12T03:37:55.386Z,100598.03
2023-05-12T03:41:05.846Z,100581.69
2023-05-12T03:44:11.260Z,100603.50
2023-05-12T03:47:15.680Z,100602.66
2023-05-12T03:50:19.270Z,100603.31
2023-05-12T03:53:23.266Z,100604.22
2023-05-12T03:56:28.611Z,100596.97
2023-05-12T03:59:32.421Z,100607.69
2023-05-12T04:02:35.875Z,100608.38
2023-05-12T04:05:39.640Z,100612.72
2023-05-12T04:08:42.844Z,100612.53
2023-05-12T04:11:46.120Z,100613.53
2023-05-12T04:14:49.079Z,100617.16
2023-05-12T04:17:52.650Z,100626.06
2023-05-12T04:20:58.706Z,100617.75
2023-05-12T04:24:02.402Z,100625.59
2023-05-12T04:27:07.266Z,100624.75
2023-05-12T04:30:11.283Z,100602.69
2023-05-12T04:33:17.381Z,100626.31
2023-05-12T04:36:20.897Z,100626.47
2023-05-12T04:39:24.567Z,100629.97
2023-05-12T04:42:28.463Z,100630.81
2023-05-12T04:45:32.417Z,100629.87
2023-05-12T04:48:42.121Z,100622.34
2023-05-12T04:51:45.405Z,100628.56
2023-05-12T04:54:48.845Z,100628.25
2023-05-12T04:57:52.575Z,100627.31
2023-05-12T05:00:56.289Z,100638.78
2023-05-12T05:03:59.559Z,100634.25
2023-05-12T05:07:03.054Z,100632.31
2023-05-12T05:10:07.629Z,100638.72
2023-05-12T05:13:11.347Z,100641.44
2023-05-12T05:16:14.447Z,100635.81
2023-05-12T05:19:24.382Z,100640.09
2023-05-12T05:22:39.915Z,100630.00
2023-05-12T05:25:44.991Z,100639.09
2023-05-12T05:28:48.303Z,100645.69
2023-05-12T05:31:52.867Z,100630.81
2023-05-12T05:34:57.386Z,100640.03
2023-05-12T05:38:01.329Z,100633.41
2023-05-12T05:41:05.980Z,100645.53
2023-05-12T05:44:09.334Z,100644.25
2023-05-12T05:47:13.279Z,100646.00
2023-05-12T05:50:17.402Z,100651.91
2023-05-12T05:53:21.158Z,100655.41
2023-05-12T05:56:24.811Z,100646.56
2023-05-12T05:59:29.376Z,100644.16
2023-05-12T06:02:33.616Z,100640.28
2023-05-12T06:05:42.340Z,100637.37
2023-05-12T06:08:45.969Z,100652.41
2023-05-12T06:11:49.522Z,100657.41
2023-05-12T06:14:52.851Z,100647.13
2023-05-12T06:18:00.299Z,100649.66
2023-05-12T06:21:05.275Z,100644.50
2023-05-12T06:24:08.664Z,100645.94
2023-05-12T06:27:11.837Z,100648.00
2023-05-12T06:30:16.300Z,100658.72
2023-05-12T06:33:19.685Z,100655.34
2023-05-12T06:36:23.572Z,100650.78
2023-05-12T06:39:26.850Z,100649.56
2023-05-12T06:42:30.971Z,100653.63
2023-05-12T06:45:34.061Z,100653.41
2023-05-12T06:48:37.451Z,100645.66
2023-05-12T06:51:40.633Z,100658.41
2023-05-12T06:54:45.281Z,100662.69
2023-05-12T06:57:48.589Z,100661.91
2023-05-12T07:00:52.065Z,100654.37
2023-05-12T07:03:55.375Z,100664.06
2023-05-12T07:06:58.805Z,100663.84
2023-05-12T07:10:01.953Z,100663.38
2023-05-12T07:13:05.414Z,100664.84
2023-05-12T07:16:08.561Z,100666.28
2023-05-12T07:19:11.954Z,100664.00
2023-05-12T07:22:15.002Z,100668.47
2023-05-12T07:25:19.248Z,100662.06
2023-05-12T07:28:27.835Z,100656.72
2023-05-12T07:31:31.419Z,100668.72
2023-05-12T07:34:35.390Z,100658.03
2023-05-12T07:37:38.790Z,100666.47
2023-05-12T07:40:41.903Z,100658.16
2023-05-12T07:43:45.693Z,100665.41
2023-05-12T07:46:48.755Z,100669.00
2023-05-12T07:49:52.226Z,100661.84
2023-05-12T07:52:55.813Z,100672.19
2023-05-12T07:55:59.373Z,100682.19
2023-05-12T07:59:02.658Z,100685.75
2023-05-12T08:02:06.666Z,100684.78
2023-05-12T08:05:11.356Z,100695.03
2023-05-12T08:08:16.862Z,100691.59
2023-05-12T08:11:20.238Z,100683.03
2023-05-12T08:14:25.830Z,100695.06
2023-05-12T08:17:29.489Z,100694.97
2023-05-12T08:20:33.589Z,100691.28
2023-05-12T08:23:39.652Z,100697.41
2023-05-12T08:26:43.842Z,100704.47
2023-05-12T08:29:47.426Z,100704.28
2023-05-12T08:32:51.536Z,100691.47
2023-05-12T08:35:55.313Z,100707.66
2023-05-12T08:38:58.541Z,100712.78
2023-05-12T08:42:13.651Z,100715.69
2023-05-12T08:45:18.309Z,100717.09
2023-05-12T08:48:23.396Z,100729.25
2023-05-12T08:51:29.322Z,100727.69
2023-05-12T08:54:36.081Z,100727.38
2023-05-12T08:57:48.559Z,100731.97
2023-05-12T09:00:52.289Z,100731.44
2023-05-12T09:03:55.473Z,100721.50
2023-05-12T09:06:59.467Z,100734.25
2023-05-12T09:10:06.902Z,100737.16
2023-05-12T09:13:41.044Z,100747.19
2023-05-12T09:16:49.372Z,100738.91
2023-05-12T09:19:52.973Z,100733.31
2023-05-12T09:22:58.699Z,100739.50
2023-05-12T09:26:02.368Z,100743.94
2023-05-12T09:29:08.612Z,100742.22
2023-05-12T09:32:13.272Z,100746.28
2023-05-12T09:35:16.537Z,100755.13
2023-05-12T09:38:22.277Z,100753.09
2023-05-12T09:41:25.997Z,100753.69
2023-05-12T09:44:30.447Z,100754.66
2023-05-12T09:47:37.704Z,100767.94
2023-05-12T09:50:47.792Z,100764.19
2023-05-12T09:53:53.138Z,100743.31
2023-05-12T09:57:05.262Z,100763.34
2023-05-12T10:00:20.208Z,100752.78
2023-05-12T10:03:36.392Z,100755.34
2023-05-12T10:06:43.082Z,100750.53
2023-05-12T10:09:48.615Z,100758.06
2023-05-12T10:12:53.198Z,100750.94
2023-05-12T10:15:58.943Z,100756.34
2023-05-12T10:19:06.379Z,100762.56
2023-05-12T10:22:11.578Z,100759.25
2023-05-12T10:25:17.036Z,100764.59
2023-05-12T10:28:22.594Z,100769.75
2023-05-12T10:31:28.158Z,100772.06
2023-05-12T10:34:37.788Z,100770.81
2023-05-12T10:37:42.896Z,100765.59
2023-05-12T10:40:58.350Z,100767.66
2023-05-12T10:44:01.633Z,100768.56
2023-05-12T10:47:16.796Z,100773.59
2023-05-12T10:50:29.377Z,100773.06
2023-05-12T10:53:48.276Z,100779.66
2023-05-12T10:57:01.564Z,100781.16
2023-05-12T11:00:05.872Z,100778.34
2023-05-12T11:03:14.822Z,100771.19
2023-05-12T11:06:22.921Z,100785.06
2023-05-12T11:09:26.931Z,100786.13
2023-05-12T11:12:34.104Z,100787.09
2023-05-12T11:15:37.976Z,100786.66
2023-05-12T11:18:41.444Z,100793.44
2023-05-12T11:21:48.283Z,100796.94
2023-05-12T11:24:53.128Z,100796.75
2023-05-12T11:27:56.850Z,100797.50
2023-05-12T11:31:01.955Z,100801.53
2023-05-12T11:34:12.815Z,100801.12
2023-05-12T11:37:21.419Z,100793.53
2023-05-12T11:40:24.757Z,100801.41
2023-05-12T11:43:28.883Z,100802.13
2023-05-12T11:46:32.173Z,100801.78
2023-05-12T11:49:49.497Z,100804.75
2023-05-12T11:52:59.119Z,100811.31
2023-05-12T11:56:02.425Z,100807.72
2023-05-12T12:11:46.200Z,100773.88
2023-05-12T12:14:52.626Z,100773.88
2023-05-12T12:17:56.013Z,100789.78
2023-05-12T12:20:59.361Z,100787.50
2023-05-12T12:24:02.334Z,100801.22
2023-05-12T12:27:06.128Z,100795.91
2023-05-12T12:30:09.709Z,100808.41
2023-05-12T12:33:13.459Z,100809.53
2023-05-12T12:36:16.159Z,100807.03
2023-05-12T12:39:20.097Z,100803.66
2023-05-12T12:42:23.092Z,100801.41
2023-05-12T12:45:26.636Z,100806.09
2023-05-12T12:48:32.179Z,100810.28
2023-05-12T12:51:45.461Z,100807.22
2023-05-12T12:54:49.076Z,100806.03
2023-05-12T12:57:52.322Z,100798.38
2023-05-12T13:00:55.191Z,100800.88
2023-05-12T13:04:00.416Z,100796.69
2023-05-12T13:07:03.489Z,100802.97
2023-05-12T13:10:07.150Z,100786.28
2023-05-12T13:13:12.940Z,100787.72
2023-05-12T13:16:16.127Z,100787.72
2023-05-12T13:19:18.952Z,100792.97
2023-05-12T13:22:22.892Z,100789.97
2023-05-12T13:25:26.214Z,100789.50
2023-05-12T13:28:30.911Z,100790.38
2023-05-12T13:31:34.300Z,100786.69
2023-05-12T13:34:37.730Z,100791.03
2023-05-12T13:37:40.744Z,100783.03
2023-05-12T13:40:43.996Z,100788.25
2023-05-12T13:43:47.176Z,100792.09
2023-05-12T13:46:50.670Z,100796.13
2023-05-12T13:49:54.053Z,100799.91
2023-05-12T13:52:58.693Z,100787.59
2023-05-12T13:56:01.917Z,100799.16
2023-05-12T13:59:06.221Z,100797.31
2023-05-12T14:02:12.003Z,100801.56
2023-05-12T14:05:15.743Z,100804.19
2023-05-12T14:08:18.959Z,100800.50
2023-05-12T14:11:23.056Z,100797.72
2023-05-12T14:14:26.385Z,100802.44
2023-05-12T14:17:30.064Z,100804.56
2023-05-12T14:20:33.277Z,100810.13
2023-05-12T14:23:36.857Z,100809.47
2023-05-12T14:26:39.973Z,100813.09
2023-05-12T14:29:43.349Z,100805.09
2023-05-12T14:32:46.548Z,100809.47
2023-05-12T14:35:59.252Z,100808.41
2023-05-12T14:39:09.522Z,100813.91
2023-05-12T14:42:12.882Z,100813.03
2023-05-12T14:45:15.982Z,100815.56
2023-05-12T14:48:19.331Z,100812.97
2023-05-12T14:51:22.712Z,100819.25
2023-05-12T14:54:26.312Z,100799.34
2023-05-12T14:57:29.372Z,100819.25
2023-05-12T15:00:33.503Z,100820.28
2023-05-12T15:03:37.780Z,100828.22
2023-05-12T15:06:41.206Z,100821.94
2023-05-12T15:09:44.662Z,100816.87
2023-05-12T15:12:48.076Z,100835.50
2023-05-12T15:15:52.988Z,100830.06
2023-05-12T15:18:58.835Z,100832.78
2023-05-12T15:22:02.157Z,100832.59
2023-05-12T15:25:06.132Z,100827.09
2023-05-12T15:28:09.216Z,100809.47
2023-05-12T15:31:12.730Z,100827.59
2023-05-12T15:34:16.101Z,100826.63
2023-05-12T15:37:21.852Z,100827.59
2023-05-12T15:40:25.402Z,100818.84
2023-05-12T15:43:29.594Z,100832.84
2023-05-12T15:46:33.011Z,100829.84
2023-05-12T15:49:36.512Z,100805.16
2023-05-12T15:52:39.514Z,100827.91
2023-05-12T15:55:43.616Z,100827.44
2023-05-12T15:58:47.745Z,100813.44
2023-05-12T16:01:51.349Z,100829.94
2023-05-12T16:04:55.201Z,100813.44
2023-05-12T16:07:59.090Z,100811.13
2023-05-12T16:11:05.910Z,100829.00
2023-05-12T16:14:09.327Z,100827.25
2023-05-12T16:17:12.769Z,100821.16
2023-05-12T16:20:15.884Z,100830.25
2023-05-12T16:23:19.223Z,100825.09
2023-05-12T16:26:23.795Z,100839.31
2023-05-12T16:29:29.346Z,100838.53
2023-05-12T16:32:32.468Z,100833.31
2023-05-12T16:35:36.218Z,100836.13
2023-05-12T16:38:39.231Z,100841.44
2023-05-12T16:41:42.711Z,100841.63
2023-05-12T16:44:46.291Z,100830.56
2023-05-12T16:47:50.304Z,100836.22
2023-05-12T16:51:02.559Z,100844.78
2023-05-12T16:54:06.326Z,100836.66
2023-05-12T16:57:09.438Z,100836.03
2023-05-12T17:00:13.258Z,100849.31
2023-05-12T17:03:16.534Z,100834.75
2023-05-12T17:06:20.495Z,100854.75
2023-05-12T17:09:23.854Z,100851.06
2023-05-12T17:12:28.018Z,100856.47
2023-05-12T17:15:32.168Z,100853.69
2023-05-12T17:19:13.711Z,100847.56
2023-05-12T17:21:58.645Z,100864.69
2023-05-12T17:25:02.140Z,100863.03
2023-05-12T17:28:06.208Z,100864.09
2023-05-12T17:31:10.750Z,100867.84
2023-05-12T17:34:13.993Z,100867.06
2023-05-12T17:37:18.298Z,100864.69
2023-05-12T17:40:22.512Z,100866.69
2023-05-12T17:43:26.070Z,100872.91
2023-05-12T17:46:29.652Z,100864.19
2023-05-12T17:49:33.056Z,100881.97
2023-05-12T17:52:37.290Z,100879.25
2023-05-12T17:55:40.715Z,100884.78
2023-05-12T17:58:43.895Z,100886.69
2023-05-12T18:01:47.428Z,100895.78
2023-05-12T18:04:50.910Z,100889.66
2023-05-12T18:07:54.163Z,100873.22
2023-05-12T18:10:57.751Z,100875.13
2023-05-12T18:14:02.628Z,100886.50
2023-05-12T18:17:06.329Z,100882.47
2023-05-12T18:20:09.962Z,100842.19
2023-05-12T18:23:13.572Z,100894.09
2023-05-12T18:26:17.067Z,100881.81
2023-05-12T18:29:21.594Z,100894.41
2023-05-12T18:32:26.274Z,100894.56
2023-05-12T18:35:30.901Z,100888.53
2023-05-12T18:38:35.164Z,100893.16
2023-05-12T18:41:39.845Z,100895.13
2023-05-12T18:44:43.101Z,100899.84
2023-05-12T18:47:46.715Z,100891.28
2023-05-12T18:50:50.118Z,100897.41
2023-05-12T18:53:53.969Z,100906.47
2023-05-12T18:56:57.267Z,100898.19
2023-05-12T19:00:01.426Z,100911.87
2023-05-12T19:03:05.035Z,100906.53
2023-05-12T19:06:08.592Z,100912.81
2023-05-12T19:09:12.048Z,100893.84
2023-05-12T19:12:15.586Z,100921.19
2023-05-12T19:15:19.524Z,100921.19
2023-05-12T19:18:23.464Z,100919.50
2023-05-12T19:21:28.328Z,100915.13
2023-05-12T19:24:35.460Z,100918.81
2023-05-12T19:27:38.692Z,100915.47
2023-05-12T19:30:43.618Z,100921.59
2023-05-12T19:33:46.921Z,100919.84
2023-05-12T19:36:54.361Z,100925.25
2023-05-12T19:39:58.401Z,100928.75
2023-05-12T19:43:02.338Z,100936.06
2023-05-12T19:46:08.948Z,100932.41
2023-05-12T19:49:14.462Z,100932.34
2023-05-12T19:52:18.628Z,100924.56
2023-05-12T19:55:22.554Z,100931.53
2023-05-12T19:58:26.575Z,100936.78
2023-05-12T20:01:30.574Z,100936.78
2023-05-12T20:04:34.252Z,100928.19
2023-05-12T20:07:37.752Z,100929.88
2023-05-12T20:10:41.462Z,100899.09
2023-05-12T20:13:44.551Z,100942.34
2023-05-12T20:16:48.498Z,100940.62
2023-05-12T20:19:51.614Z,100933.44
2023-05-12T20:22:55.225Z,100939.66
2023-05-12T20:25:58.448Z,100920.44
2023-05-12T20:29:02.085Z,100929.34
2023-05-12T20:32:05.549Z,100936.31
2023-05-12T20:35:10.538Z,100925.84
2023-05-12T20:38:14.439Z,100939.00
2023-05-12T20:41:18.941Z,100938.16
2023-05-12T20:44:23.144Z,100903.88
2023-05-12T20:47:26.820Z,100938.09
2023-05-12T20:50:30.834Z,100944.12
2023-05-12T20:53:34.909Z,100927.97
2023-05-12T20:56:38.465Z,100936.16
2023-05-12T20:59:41.838Z,100944.19
2023-05-12T21:02:45.605Z,100938.84
2023-05-12T21:05:52.125Z,100939.81
2023-05-12T21:08:55.816Z,100934.75
2023-05-12T21:11:59.285Z,100942.59
2023-05-12T21:15:02.552Z,100947.94
2023-05-12T21:18:06.224Z,100945.47
2023-05-12T21:21:09.576Z,100946.03
2023-05-12T21:24:13.183Z,100947.75
2023-05-12T21:27:16.525Z,100946.03
2023-05-12T21:30:21.771Z,100946.03
2023-05-12T21:33:26.319Z,100950.62
2023-05-12T21:36:30.067Z,100948.78
2023-05-12T21:39:34.100Z,100942.75
2023-05-12T21:42:37.575Z,100949.59
2023-05-12T21:45:40.821Z,100941.72
2023-05-12T21:48:44.282Z,100930.28
2023-05-12T21:51:47.456Z,100957.53
2023-05-12T21:54:50.926Z,100950.28
2023-05-12T21:57:54.019Z,100914.06
2023-05-12T22:00:57.561Z,100927.66
2023-05-12T22:04:01.020Z,100951.25
2023-05-12T22:07:04.448Z,100958.41
2023-05-12T22:10:08.062Z,100951.97
2023-05-12T22:13:11.263Z,100954.78
2023-05-12T22:16:14.764Z,100931.13
2023-05-12T22:19:18.179Z,100946.56
2023-05-12T22:22:22.078Z,100949.19
2023-05-12T22:25:25.326Z,100951.03
2023-05-12T22:28:28.633Z,100951.03
2023-05-12T22:31:31.855Z,100950.16
2023-05-12T22:34:35.384Z,100954.44
2023-05-12T22:37:38.765Z,100930.50
2023-05-12T22:40:43.035Z,100946.06
2023-05-12T22:43:46.419Z,100952.34
2023-05-12T22:46:49.854Z,100955.97
2023-05-12T22:49:53.143Z,100946.88
2023-05-12T22:52:58.114Z,100947.12
2023-05-12T22:56:01.229Z,100945.03
2023-05-12T22:59:04.653Z,100937.97
2023-05-12T23:02:08.237Z,100942.44
2023-05-12T23:05:11.885Z,100929.28
2023-05-12T23:08:15.230Z,100937.16
2023-05-12T23:11:18.880Z,100925.53
2023-05-12T23:14:22.838Z,100938.19
2023-05-12T23:17:26.516Z,100928.25
2023-05-12T23:20:29.546Z,100928.19
2023-05-12T23:23:33.290Z,100921.97
2023-05-12T23:26:36.484Z,100915.69
2023-05-12T23:29:39.890Z,100913.88
2023-05-12T23:32:43.119Z,100912.03
2023-05-12T23:35:46.598Z,100912.94
2023-05-12T23:38:53.760Z,100904.87
2023-05-12T23:41:57.187Z,100904.94
2023-05-12T23:45:00.586Z,100909.44
2023-05-12T23:48:04.129Z,100908.56
2023-05-12T23:51:07.445Z,100908.44
2023-05-12T23:54:10.940Z,100910.28
2023-05-12T23:57:14.281Z,100908.56
